sensor_id;sensor_type;location;lat;lon;timestamp;P1;durP1;ratioP1;P2;durP2;ratioP2
24787;SDS011;12883;52.662;5.196;2023-02-07T00:02:05;8.17;;;8.07;;
24787;SDS011;12883;52.662;5.196;2023-02-07T00:04:30;8.50;;;8.40;;
24787;SDS011;12883;52.662;5.196;2023-02-07T00:06:56;7.87;;;7.80;;
24787;SDS011;12883;52.662;5.196;2023-02-07T00:09:21;8.47;;;8.37;;
24787;SDS011;12883;52.662;5.196;2023-02-07T00:11:46;9.00;;;8.90;;
24787;SDS011;12883;52.662;5.196;2023-02-07T00:14:12;8.90;;;8.80;;
24787;SDS011;12883;52.662;5.196;2023-02-07T00:16:38;7.80;;;7.80;;
24787;SDS011;12883;52.662;5.196;2023-02-07T00:19:04;7.93;;;7.93;;
24787;SDS011;12883;52.662;5.196;2023-02-07T00:21:29;8.97;;;8.87;;
24787;SDS011;12883;52.662;5.196;2023-02-07T00:23:55;9.10;;;9.00;;
24787;SDS011;12883;52.662;5.196;2023-02-07T00:26:21;8.80;;;8.70;;
24787;SDS011;12883;52.662;5.196;2023-02-07T00:28:48;8.57;;;8.47;;
24787;SDS011;12883;52.662;5.196;2023-02-07T00:31:16;7.53;;;7.43;;
24787;SDS011;12883;52.662;5.196;2023-02-07T00:33:43;8.70;;;8.60;;
24787;SDS011;12883;52.662;5.196;2023-02-07T00:36:11;8.97;;;8.87;;
24787;SDS011;12883;52.662;5.196;2023-02-07T00:38:38;8.17;;;8.07;;
24787;SDS011;12883;52.662;5.196;2023-02-07T00:41:04;8.57;;;8.47;;
24787;SDS011;12883;52.662;5.196;2023-02-07T00:43:30;8.70;;;8.60;;
24787;SDS011;12883;52.662;5.196;2023-02-07T00:45:56;9.90;;;9.80;;
24787;SDS011;12883;52.662;5.196;2023-02-07T00:48:23;8.60;;;8.50;;
24787;SDS011;12883;52.662;5.196;2023-02-07T00:50:49;8.30;;;8.20;;
24787;SDS011;12883;52.662;5.196;2023-02-07T00:53:14;9.23;;;9.13;;
24787;SDS011;12883;52.662;5.196;2023-02-07T00:55:39;9.60;;;9.50;;
24787;SDS011;12883;52.662;5.196;2023-02-07T00:58:05;8.63;;;8.63;;
24787;SDS011;12883;52.662;5.196;2023-02-07T01:00:30;9.23;;;9.13;;
24787;SDS011;12883;52.662;5.196;2023-02-07T01:02:56;9.50;;;9.40;;
24787;SDS011;12883;52.662;5.196;2023-02-07T01:05:21;8.77;;;8.67;;
24787;SDS011;12883;52.662;5.196;2023-02-07T01:07:46;8.50;;;8.40;;
24787;SDS011;12883;52.662;5.196;2023-02-07T01:10:12;9.40;;;9.30;;
24787;SDS011;12883;52.662;5.196;2023-02-07T01:12:37;8.70;;;8.60;;
24787;SDS011;12883;52.662;5.196;2023-02-07T01:15:03;9.20;;;9.10;;
24787;SDS011;12883;52.662;5.196;2023-02-07T01:17:31;8.57;;;8.47;;
24787;SDS011;12883;52.662;5.196;2023-02-07T01:19:56;8.57;;;8.47;;
24787;SDS011;12883;52.662;5.196;2023-02-07T01:22:25;9.13;;;9.03;;
24787;SDS011;12883;52.662;5.196;2023-02-07T01:24:52;8.93;;;8.87;;
24787;SDS011;12883;52.662;5.196;2023-02-07T01:27:19;10.40;;;10.30;;
24787;SDS011;12883;52.662;5.196;2023-02-07T01:29:45;10.43;;;10.33;;
24787;SDS011;12883;52.662;5.196;2023-02-07T01:32:10;9.60;;;9.50;;
24787;SDS011;12883;52.662;5.196;2023-02-07T01:34:35;10.13;;;10.03;;
24787;SDS011;12883;52.662;5.196;2023-02-07T01:37:01;10.13;;;10.03;;
24787;SDS011;12883;52.662;5.196;2023-02-07T01:39:26;10.37;;;10.27;;
24787;SDS011;12883;52.662;5.196;2023-02-07T01:41:51;11.53;;;11.43;;
24787;SDS011;12883;52.662;5.196;2023-02-07T01:46:49;10.83;;;10.73;;
24787;SDS011;12883;52.662;5.196;2023-02-07T01:49:16;11.50;;;11.40;;
24787;SDS011;12883;52.662;5.196;2023-02-07T01:51:46;11.47;;;11.37;;
24787;SDS011;12883;52.662;5.196;2023-02-07T01:54:14;9.63;;;9.53;;
24787;SDS011;12883;52.662;5.196;2023-02-07T01:56:42;10.93;;;10.83;;
24787;SDS011;12883;52.662;5.196;2023-02-07T01:59:10;11.63;;;11.53;;
24787;SDS011;12883;52.662;5.196;2023-02-07T02:01:36;10.33;;;10.23;;
24787;SDS011;12883;52.662;5.196;2023-02-07T02:04:02;11.60;;;11.50;;
24787;SDS011;12883;52.662;5.196;2023-02-07T02:06:29;12.27;;;12.17;;
24787;SDS011;12883;52.662;5.196;2023-02-07T02:08:57;11.53;;;11.43;;
24787;SDS011;12883;52.662;5.196;2023-02-07T02:17:00;11.70;;;11.60;;
24787;SDS011;12883;52.662;5.196;2023-02-07T02:22:26;11.70;;;11.60;;
24787;SDS011;12883;52.662;5.196;2023-02-07T02:33:34;12.33;;;12.23;;
24787;SDS011;12883;52.662;5.196;2023-02-07T02:41:25;13.97;;;13.80;;
24787;SDS011;12883;52.662;5.196;2023-02-07T02:44:03;13.03;;;12.93;;
24787;SDS011;12883;52.662;5.196;2023-02-07T02:46:36;14.80;;;14.70;;
24787;SDS011;12883;52.662;5.196;2023-02-07T02:49:04;14.60;;;14.50;;
24787;SDS011;12883;52.662;5.196;2023-02-07T02:51:33;14.23;;;14.13;;
24787;SDS011;12883;52.662;5.196;2023-02-07T02:53:58;15.30;;;15.20;;
24787;SDS011;12883;52.662;5.196;2023-02-07T02:59:22;15.27;;;15.07;;
24787;SDS011;12883;52.662;5.196;2023-02-07T03:05:06;16.90;;;16.70;;
24787;SDS011;12883;52.662;5.196;2023-02-07T03:10:55;15.80;;;15.70;;
24787;SDS011;12883;52.662;5.196;2023-02-07T03:23:50;19.20;;;19.00;;
24787;SDS011;12883;52.662;5.196;2023-02-07T03:26:19;19.60;;;19.40;;
24787;SDS011;12883;52.662;5.196;2023-02-07T03:28:48;21.23;;;21.03;;
24787;SDS011;12883;52.662;5.196;2023-02-07T03:31:16;21.17;;;20.97;;
24787;SDS011;12883;52.662;5.196;2023-02-07T03:33:44;21.37;;;21.17;;
24787;SDS011;12883;52.662;5.196;2023-02-07T03:36:23;20.97;;;20.77;;
24787;SDS011;12883;52.662;5.196;2023-02-07T03:38:54;23.80;;;23.50;;
24787;SDS011;12883;52.662;5.196;2023-02-07T03:41:25;24.10;;;23.90;;
24787;SDS011;12883;52.662;5.196;2023-02-07T03:43:54;25.50;;;25.30;;
24787;SDS011;12883;52.662;5.196;2023-02-07T03:46:23;25.30;;;25.10;;
24787;SDS011;12883;52.662;5.196;2023-02-07T03:48:48;24.67;;;24.47;;
24787;SDS011;12883;52.662;5.196;2023-02-07T03:51:14;24.23;;;24.03;;
24787;SDS011;12883;52.662;5.196;2023-02-07T03:53:39;22.27;;;22.07;;
24787;SDS011;12883;52.662;5.196;2023-02-07T03:56:04;21.70;;;21.50;;
24787;SDS011;12883;52.662;5.196;2023-02-07T03:58:30;22.53;;;22.33;;
24787;SDS011;12883;52.662;5.196;2023-02-07T04:00:55;22.80;;;22.60;;
24787;SDS011;12883;52.662;5.196;2023-02-07T04:03:21;21.67;;;21.47;;
24787;SDS011;12883;52.662;5.196;2023-02-07T04:05:46;21.37;;;21.17;;
24787;SDS011;12883;52.662;5.196;2023-02-07T04:08:13;23.13;;;22.93;;
24787;SDS011;12883;52.662;5.196;2023-02-07T04:10:39;22.63;;;22.43;;
24787;SDS011;12883;52.662;5.196;2023-02-07T04:13:04;22.33;;;22.13;;
24787;SDS011;12883;52.662;5.196;2023-02-07T04:15:29;21.03;;;20.83;;
24787;SDS011;12883;52.662;5.196;2023-02-07T04:17:55;23.70;;;23.50;;
24787;SDS011;12883;52.662;5.196;2023-02-07T04:20:20;22.80;;;22.60;;
24787;SDS011;12883;52.662;5.196;2023-02-07T04:22:45;20.80;;;20.60;;
24787;SDS011;12883;52.662;5.196;2023-02-07T04:25:11;22.43;;;22.23;;
24787;SDS011;12883;52.662;5.196;2023-02-07T04:27:36;22.80;;;22.60;;
24787;SDS011;12883;52.662;5.196;2023-02-07T04:30:02;21.13;;;20.93;;
24787;SDS011;12883;52.662;5.196;2023-02-07T04:32:27;23.13;;;22.93;;
24787;SDS011;12883;52.662;5.196;2023-02-07T04:34:53;22.43;;;22.23;;
24787;SDS011;12883;52.662;5.196;2023-02-07T04:37:18;22.67;;;22.47;;
24787;SDS011;12883;52.662;5.196;2023-02-07T04:39:43;22.83;;;22.63;;
24787;SDS011;12883;52.662;5.196;2023-02-07T04:42:09;22.80;;;22.60;;
24787;SDS011;12883;52.662;5.196;2023-02-07T04:44:35;22.27;;;22.07;;
24787;SDS011;12883;52.662;5.196;2023-02-07T04:47:00;23.27;;;23.07;;
24787;SDS011;12883;52.662;5.196;2023-02-07T04:49:26;23.10;;;22.90;;
24787;SDS011;12883;52.662;5.196;2023-02-07T04:51:51;22.57;;;22.37;;
24787;SDS011;12883;52.662;5.196;2023-02-07T04:54:16;20.63;;;20.43;;
24787;SDS011;12883;52.662;5.196;2023-02-07T04:56:42;22.17;;;21.97;;
24787;SDS011;12883;52.662;5.196;2023-02-07T04:59:07;22.77;;;22.57;;
24787;SDS011;12883;52.662;5.196;2023-02-07T05:01:32;21.83;;;21.63;;
24787;SDS011;12883;52.662;5.196;2023-02-07T05:03:58;19.70;;;19.50;;
24787;SDS011;12883;52.662;5.196;2023-02-07T05:06:23;18.57;;;18.47;;
24787;SDS011;12883;52.662;5.196;2023-02-07T05:08:49;18.47;;;18.37;;
24787;SDS011;12883;52.662;5.196;2023-02-07T05:11:14;19.27;;;19.17;;
24787;SDS011;12883;52.662;5.196;2023-02-07T05:13:40;20.03;;;19.93;;
24787;SDS011;12883;52.662;5.196;2023-02-07T05:16:05;20.00;;;19.90;;
24787;SDS011;12883;52.662;5.196;2023-02-07T05:18:31;19.57;;;19.47;;
24787;SDS011;12883;52.662;5.196;2023-02-07T05:20:56;21.07;;;20.87;;
24787;SDS011;12883;52.662;5.196;2023-02-07T05:23:22;21.40;;;21.20;;
24787;SDS011;12883;52.662;5.196;2023-02-07T05:25:48;20.30;;;20.10;;
24787;SDS011;12883;52.662;5.196;2023-02-07T05:28:13;18.93;;;18.83;;
24787;SDS011;12883;52.662;5.196;2023-02-07T05:30:39;21.97;;;21.77;;
24787;SDS011;12883;52.662;5.196;2023-02-07T05:33:04;21.80;;;21.70;;
24787;SDS011;12883;52.662;5.196;2023-02-07T05:35:31;22.67;;;22.47;;
24787;SDS011;12883;52.662;5.196;2023-02-07T05:37:57;22.87;;;22.67;;
24787;SDS011;12883;52.662;5.196;2023-02-07T05:40:22;22.33;;;22.13;;
24787;SDS011;12883;52.662;5.196;2023-02-07T05:42:48;22.60;;;22.43;;
24787;SDS011;12883;52.662;5.196;2023-02-07T05:45:13;23.07;;;22.87;;
24787;SDS011;12883;52.662;5.196;2023-02-07T05:47:38;23.63;;;23.43;;
24787;SDS011;12883;52.662;5.196;2023-02-07T05:50:04;23.93;;;23.73;;
24787;SDS011;12883;52.662;5.196;2023-02-07T05:52:30;22.83;;;22.63;;
24787;SDS011;12883;52.662;5.196;2023-02-07T05:54:55;24.27;;;24.07;;
24787;SDS011;12883;52.662;5.196;2023-02-07T05:57:20;23.37;;;23.17;;
24787;SDS011;12883;52.662;5.196;2023-02-07T05:59:46;24.37;;;24.17;;
24787;SDS011;12883;52.662;5.196;2023-02-07T06:02:11;23.80;;;23.60;;
24787;SDS011;12883;52.662;5.196;2023-02-07T06:04:37;23.63;;;23.47;;
24787;SDS011;12883;52.662;5.196;2023-02-07T06:07:02;23.43;;;23.23;;
24787;SDS011;12883;52.662;5.196;2023-02-07T06:09:27;24.03;;;23.83;;
24787;SDS011;12883;52.662;5.196;2023-02-07T06:11:53;24.00;;;23.80;;
24787;SDS011;12883;52.662;5.196;2023-02-07T06:14:20;23.63;;;23.47;;
24787;SDS011;12883;52.662;5.196;2023-02-07T06:16:45;24.77;;;24.57;;
24787;SDS011;12883;52.662;5.196;2023-02-07T06:19:11;25.47;;;25.27;;
24787;SDS011;12883;52.662;5.196;2023-02-07T06:21:37;26.27;;;26.07;;
24787;SDS011;12883;52.662;5.196;2023-02-07T06:24:03;24.63;;;24.43;;
24787;SDS011;12883;52.662;5.196;2023-02-07T06:26:29;24.27;;;24.13;;
24787;SDS011;12883;52.662;5.196;2023-02-07T06:28:54;25.43;;;25.23;;
24787;SDS011;12883;52.662;5.196;2023-02-07T06:31:19;25.30;;;25.10;;
24787;SDS011;12883;52.662;5.196;2023-02-07T06:33:45;26.00;;;25.80;;
24787;SDS011;12883;52.662;5.196;2023-02-07T06:36:10;26.13;;;25.93;;
24787;SDS011;12883;52.662;5.196;2023-02-07T06:38:35;25.10;;;24.90;;
24787;SDS011;12883;52.662;5.196;2023-02-07T06:41:01;25.53;;;25.33;;
24787;SDS011;12883;52.662;5.196;2023-02-07T06:43:26;26.33;;;26.13;;
24787;SDS011;12883;52.662;5.196;2023-02-07T06:45:51;25.83;;;25.63;;
24787;SDS011;12883;52.662;5.196;2023-02-07T06:48:17;25.17;;;24.97;;
24787;SDS011;12883;52.662;5.196;2023-02-07T06:50:42;26.70;;;26.50;;
24787;SDS011;12883;52.662;5.196;2023-02-07T06:53:08;28.30;;;28.10;;
24787;SDS011;12883;52.662;5.196;2023-02-07T06:55:39;27.17;;;26.97;;
24787;SDS011;12883;52.662;5.196;2023-02-07T06:58:05;26.80;;;26.60;;
24787;SDS011;12883;52.662;5.196;2023-02-07T07:00:31;27.00;;;26.80;;
24787;SDS011;12883;52.662;5.196;2023-02-07T07:02:57;27.37;;;27.17;;
24787;SDS011;12883;52.662;5.196;2023-02-07T07:05:24;26.47;;;26.27;;
24787;SDS011;12883;52.662;5.196;2023-02-07T07:07:50;26.70;;;26.50;;
24787;SDS011;12883;52.662;5.196;2023-02-07T07:10:15;25.87;;;25.67;;
24787;SDS011;12883;52.662;5.196;2023-02-07T07:12:41;26.97;;;26.77;;
24787;SDS011;12883;52.662;5.196;2023-02-07T07:15:06;26.13;;;25.93;;
24787;SDS011;12883;52.662;5.196;2023-02-07T07:17:32;28.23;;;28.03;;
24787;SDS011;12883;52.662;5.196;2023-02-07T07:19:57;27.47;;;27.27;;
24787;SDS011;12883;52.662;5.196;2023-02-07T07:22:23;28.07;;;27.87;;
24787;SDS011;12883;52.662;5.196;2023-02-07T07:24:49;26.67;;;26.47;;
24787;SDS011;12883;52.662;5.196;2023-02-07T07:27:15;27.50;;;27.30;;
24787;SDS011;12883;52.662;5.196;2023-02-07T07:29:40;27.50;;;27.30;;
24787;SDS011;12883;52.662;5.196;2023-02-07T07:32:06;26.27;;;26.07;;
24787;SDS011;12883;52.662;5.196;2023-02-07T07:34:31;27.50;;;27.30;;
24787;SDS011;12883;52.662;5.196;2023-02-07T07:36:57;27.90;;;27.70;;
24787;SDS011;12883;52.662;5.196;2023-02-07T07:39:23;28.47;;;28.27;;
24787;SDS011;12883;52.662;5.196;2023-02-07T07:41:49;28.23;;;28.03;;
24787;SDS011;12883;52.662;5.196;2023-02-07T07:44:14;28.13;;;27.93;;
24787;SDS011;12883;52.662;5.196;2023-02-07T07:46:40;27.83;;;27.63;;
24787;SDS011;12883;52.662;5.196;2023-02-07T07:49:05;28.70;;;28.50;;
24787;SDS011;12883;52.662;5.196;2023-02-07T07:51:30;28.10;;;27.90;;
24787;SDS011;12883;52.662;5.196;2023-02-07T07:53:56;30.27;;;30.07;;
24787;SDS011;12883;52.662;5.196;2023-02-07T07:56:21;31.13;;;30.93;;
24787;SDS011;12883;52.662;5.196;2023-02-07T07:58:47;29.33;;;29.13;;
24787;SDS011;12883;52.662;5.196;2023-02-07T08:01:12;29.67;;;29.47;;
24787;SDS011;12883;52.662;5.196;2023-02-07T08:03:38;30.20;;;30.00;;
24787;SDS011;12883;52.662;5.196;2023-02-07T08:06:03;30.60;;;30.40;;
24787;SDS011;12883;52.662;5.196;2023-02-07T08:08:29;31.80;;;31.60;;
24787;SDS011;12883;52.662;5.196;2023-02-07T08:10:55;30.30;;;30.10;;
24787;SDS011;12883;52.662;5.196;2023-02-07T08:13:25;32.23;;;31.93;;
24787;SDS011;12883;52.662;5.196;2023-02-07T08:15:50;30.43;;;30.23;;
24787;SDS011;12883;52.662;5.196;2023-02-07T08:18:16;31.37;;;31.17;;
24787;SDS011;12883;52.662;5.196;2023-02-07T08:20:41;31.00;;;30.80;;
24787;SDS011;12883;52.662;5.196;2023-02-07T08:23:07;32.63;;;32.43;;
24787;SDS011;12883;52.662;5.196;2023-02-07T08:25:32;29.90;;;29.70;;
24787;SDS011;12883;52.662;5.196;2023-02-07T08:27:57;32.77;;;32.57;;
24787;SDS011;12883;52.662;5.196;2023-02-07T08:30:23;33.67;;;33.47;;
24787;SDS011;12883;52.662;5.196;2023-02-07T08:32:48;34.50;;;34.20;;
24787;SDS011;12883;52.662;5.196;2023-02-07T08:35:15;35.03;;;34.73;;
24787;SDS011;12883;52.662;5.196;2023-02-07T08:37:41;33.43;;;33.17;;
24787;SDS011;12883;52.662;5.196;2023-02-07T08:40:07;34.87;;;34.63;;
24787;SDS011;12883;52.662;5.196;2023-02-07T08:42:33;33.63;;;33.43;;
24787;SDS011;12883;52.662;5.196;2023-02-07T08:44:58;35.50;;;35.30;;
24787;SDS011;12883;52.662;5.196;2023-02-07T08:47:23;34.53;;;34.33;;
24787;SDS011;12883;52.662;5.196;2023-02-07T08:49:49;36.23;;;35.93;;
24787;SDS011;12883;52.662;5.196;2023-02-07T08:52:14;34.23;;;33.93;;
24787;SDS011;12883;52.662;5.196;2023-02-07T08:54:40;37.13;;;36.83;;
24787;SDS011;12883;52.662;5.196;2023-02-07T08:57:05;34.77;;;34.53;;
24787;SDS011;12883;52.662;5.196;2023-02-07T08:59:31;34.87;;;34.57;;
24787;SDS011;12883;52.662;5.196;2023-02-07T09:01:56;34.50;;;34.30;;
24787;SDS011;12883;52.662;5.196;2023-02-07T09:04:21;34.73;;;34.43;;
24787;SDS011;12883;52.662;5.196;2023-02-07T09:06:47;35.47;;;35.17;;
24787;SDS011;12883;52.662;5.196;2023-02-07T09:09:12;36.80;;;36.50;;
24787;SDS011;12883;52.662;5.196;2023-02-07T09:11:38;36.57;;;36.27;;
24787;SDS011;12883;52.662;5.196;2023-02-07T09:14:03;38.67;;;38.37;;
24787;SDS011;12883;52.662;5.196;2023-02-07T09:16:29;36.97;;;36.67;;
24787;SDS011;12883;52.662;5.196;2023-02-07T09:18:54;36.13;;;35.83;;
24787;SDS011;12883;52.662;5.196;2023-02-07T09:21:20;37.97;;;37.67;;
24787;SDS011;12883;52.662;5.196;2023-02-07T09:23:46;38.47;;;38.17;;
24787;SDS011;12883;52.662;5.196;2023-02-07T09:26:16;38.00;;;37.70;;
24787;SDS011;12883;52.662;5.196;2023-02-07T09:28:43;39.90;;;39.60;;
24787;SDS011;12883;52.662;5.196;2023-02-07T09:31:09;40.13;;;39.83;;
24787;SDS011;12883;52.662;5.196;2023-02-07T09:33:36;39.33;;;39.03;;
24787;SDS011;12883;52.662;5.196;2023-02-07T09:36:02;39.10;;;38.80;;
24787;SDS011;12883;52.662;5.196;2023-02-07T09:38:27;40.40;;;40.10;;
24787;SDS011;12883;52.662;5.196;2023-02-07T09:40:53;40.17;;;39.87;;
24787;SDS011;12883;52.662;5.196;2023-02-07T09:45:52;42.00;;;41.67;;
24787;SDS011;12883;52.662;5.196;2023-02-07T09:48:29;41.03;;;40.73;;
24787;SDS011;12883;52.662;5.196;2023-02-07T09:51:05;39.87;;;39.50;;
24787;SDS011;12883;52.662;5.196;2023-02-07T09:56:06;41.13;;;40.83;;
24787;SDS011;12883;52.662;5.196;2023-02-07T09:58:39;40.17;;;39.87;;
24787;SDS011;12883;52.662;5.196;2023-02-07T10:01:17;39.73;;;39.43;;
24787;SDS011;12883;52.662;5.196;2023-02-07T10:06:39;37.20;;;36.90;;
24787;SDS011;12883;52.662;5.196;2023-02-07T10:09:09;37.47;;;37.17;;
24787;SDS011;12883;52.662;5.196;2023-02-07T10:11:42;36.37;;;36.07;;
24787;SDS011;12883;52.662;5.196;2023-02-07T10:14:17;36.00;;;35.70;;
24787;SDS011;12883;52.662;5.196;2023-02-07T10:17:10;34.87;;;34.57;;
24787;SDS011;12883;52.662;5.196;2023-02-07T10:25:41;32.33;;;32.13;;
24787;SDS011;12883;52.662;5.196;2023-02-07T10:30:49;30.87;;;30.67;;
24787;SDS011;12883;52.662;5.196;2023-02-07T10:33:18;31.07;;;30.87;;
24787;SDS011;12883;52.662;5.196;2023-02-07T10:35:46;28.57;;;28.37;;
24787;SDS011;12883;52.662;5.196;2023-02-07T10:41:12;27.50;;;27.30;;
24787;SDS011;12883;52.662;5.196;2023-02-07T10:43:42;27.97;;;27.77;;
24787;SDS011;12883;52.662;5.196;2023-02-07T10:46:12;27.27;;;27.07;;
24787;SDS011;12883;52.662;5.196;2023-02-07T10:48:44;26.77;;;26.57;;
24787;SDS011;12883;52.662;5.196;2023-02-07T10:51:13;27.03;;;26.83;;
24787;SDS011;12883;52.662;5.196;2023-02-07T10:54:03;27.83;;;27.63;;
24787;SDS011;12883;52.662;5.196;2023-02-07T10:56:40;25.90;;;25.70;;
24787;SDS011;12883;52.662;5.196;2023-02-07T10:59:27;25.03;;;24.93;;
24787;SDS011;12883;52.662;5.196;2023-02-07T11:01:53;24.37;;;24.23;;
24787;SDS011;12883;52.662;5.196;2023-02-07T11:04:26;24.50;;;24.30;;
24787;SDS011;12883;52.662;5.196;2023-02-07T11:07:01;24.53;;;24.33;;
24787;SDS011;12883;52.662;5.196;2023-02-07T11:09:27;23.63;;;23.43;;
24787;SDS011;12883;52.662;5.196;2023-02-07T11:11:53;24.83;;;24.70;;
24787;SDS011;12883;52.662;5.196;2023-02-07T11:14:23;23.97;;;23.87;;
24787;SDS011;12883;52.662;5.196;2023-02-07T11:16:57;23.63;;;23.53;;
24787;SDS011;12883;52.662;5.196;2023-02-07T11:19:26;23.73;;;23.63;;
24787;SDS011;12883;52.662;5.196;2023-02-07T11:22:16;23.73;;;23.63;;
24787;SDS011;12883;52.662;5.196;2023-02-07T11:24:44;23.07;;;22.97;;
24787;SDS011;12883;52.662;5.196;2023-02-07T11:32:19;20.30;;;20.20;;
24787;SDS011;12883;52.662;5.196;2023-02-07T11:34:48;20.60;;;20.50;;
24787;SDS011;12883;52.662;5.196;2023-02-07T11:39:42;19.67;;;19.57;;
24787;SDS011;12883;52.662;5.196;2023-02-07T11:42:10;20.03;;;19.93;;
24787;SDS011;12883;52.662;5.196;2023-02-07T11:44:42;19.97;;;19.87;;
24787;SDS011;12883;52.662;5.196;2023-02-07T11:47:14;19.80;;;19.70;;
24787;SDS011;12883;52.662;5.196;2023-02-07T11:49:45;19.53;;;19.43;;
24787;SDS011;12883;52.662;5.196;2023-02-07T11:52:14;20.07;;;19.97;;
24787;SDS011;12883;52.662;5.196;2023-02-07T11:54:41;19.10;;;19.00;;
24787;SDS011;12883;52.662;5.196;2023-02-07T11:57:16;20.13;;;20.03;;
24787;SDS011;12883;52.662;5.196;2023-02-07T11:59:51;20.17;;;20.07;;
24787;SDS011;12883;52.662;5.196;2023-02-07T12:02:24;20.30;;;20.20;;
24787;SDS011;12883;52.662;5.196;2023-02-07T12:04:52;19.70;;;19.60;;
24787;SDS011;12883;52.662;5.196;2023-02-07T12:07:42;21.83;;;21.73;;
24787;SDS011;12883;52.662;5.196;2023-02-07T12:10:13;20.33;;;20.23;;
24787;SDS011;12883;52.662;5.196;2023-02-07T12:18:40;20.10;;;20.00;;
24787;SDS011;12883;52.662;5.196;2023-02-07T12:23:37;21.30;;;21.20;;
24787;SDS011;12883;52.662;5.196;2023-02-07T12:32:01;21.47;;;21.37;;
24787;SDS011;12883;52.662;5.196;2023-02-07T12:40:50;20.07;;;19.97;;
24787;SDS011;12883;52.662;5.196;2023-02-07T12:43:20;20.83;;;20.73;;
24787;SDS011;12883;52.662;5.196;2023-02-07T12:51:10;19.87;;;19.77;;
24787;SDS011;12883;52.662;5.196;2023-02-07T13:10:25;20.97;;;20.87;;
24787;SDS011;12883;52.662;5.196;2023-02-07T13:15:46;20.63;;;20.53;;
24787;SDS011;12883;52.662;5.196;2023-02-07T13:18:22;20.77;;;20.67;;
24787;SDS011;12883;52.662;5.196;2023-02-07T13:20:56;20.40;;;20.30;;
24787;SDS011;12883;52.662;5.196;2023-02-07T13:23:32;19.77;;;19.67;;
24787;SDS011;12883;52.662;5.196;2023-02-07T13:26:08;19.50;;;19.40;;
24787;SDS011;12883;52.662;5.196;2023-02-07T13:28:50;18.90;;;18.80;;
24787;SDS011;12883;52.662;5.196;2023-02-07T13:31:21;19.67;;;19.57;;
24787;SDS011;12883;52.662;5.196;2023-02-07T13:34:01;20.20;;;20.10;;
24787;SDS011;12883;52.662;5.196;2023-02-07T13:36:37;20.50;;;20.40;;
24787;SDS011;12883;52.662;5.196;2023-02-07T13:39:53;20.00;;;19.90;;
24787;SDS011;12883;52.662;5.196;2023-02-07T13:47:40;20.03;;;19.93;;
24787;SDS011;12883;52.662;5.196;2023-02-07T13:50:13;20.00;;;19.90;;
24787;SDS011;12883;52.662;5.196;2023-02-07T13:52:51;20.60;;;20.50;;
24787;SDS011;12883;52.662;5.196;2023-02-07T13:55:21;19.87;;;19.77;;
24787;SDS011;12883;52.662;5.196;2023-02-07T13:57:55;19.63;;;19.53;;
24787;SDS011;12883;52.662;5.196;2023-02-07T14:03:20;20.33;;;20.23;;
24787;SDS011;12883;52.662;5.196;2023-02-07T14:05:47;19.20;;;19.10;;
24787;SDS011;12883;52.662;5.196;2023-02-07T14:10:42;19.13;;;19.03;;
24787;SDS011;12883;52.662;5.196;2023-02-07T14:15:58;17.40;;;17.30;;
24787;SDS011;12883;52.662;5.196;2023-02-07T14:18:33;17.83;;;17.73;;
24787;SDS011;12883;52.662;5.196;2023-02-07T14:31:47;10.40;;;10.30;;
24787;SDS011;12883;52.662;5.196;2023-02-07T14:34:14;10.33;;;10.23;;
24787;SDS011;12883;52.662;5.196;2023-02-07T14:36:44;10.13;;;10.13;;
24787;SDS011;12883;52.662;5.196;2023-02-07T14:41:42;12.90;;;12.80;;
24787;SDS011;12883;52.662;5.196;2023-02-07T14:44:21;13.20;;;13.20;;
24787;SDS011;12883;52.662;5.196;2023-02-07T14:46:47;13.47;;;13.47;;
24787;SDS011;12883;52.662;5.196;2023-02-07T14:52:00;13.97;;;13.87;;
24787;SDS011;12883;52.662;5.196;2023-02-07T14:54:41;14.97;;;14.87;;
24787;SDS011;12883;52.662;5.196;2023-02-07T15:02:46;14.37;;;14.27;;
24787;SDS011;12883;52.662;5.196;2023-02-07T15:05:28;16.83;;;16.73;;
24787;SDS011;12883;52.662;5.196;2023-02-07T15:10:31;16.37;;;16.27;;
24787;SDS011;12883;52.662;5.196;2023-02-07T15:13:02;15.57;;;15.47;;
24787;SDS011;12883;52.662;5.196;2023-02-07T15:15:34;16.70;;;16.60;;
24787;SDS011;12883;52.662;5.196;2023-02-07T15:18:11;16.37;;;16.27;;
24787;SDS011;12883;52.662;5.196;2023-02-07T15:20:40;16.60;;;16.50;;
24787;SDS011;12883;52.662;5.196;2023-02-07T15:23:05;17.07;;;16.97;;
24787;SDS011;12883;52.662;5.196;2023-02-07T15:25:38;16.00;;;15.90;;
24787;SDS011;12883;52.662;5.196;2023-02-07T15:28:26;16.83;;;16.73;;
24787;SDS011;12883;52.662;5.196;2023-02-07T15:31:12;15.87;;;15.77;;
24787;SDS011;12883;52.662;5.196;2023-02-07T15:38:57;16.07;;;15.97;;
24787;SDS011;12883;52.662;5.196;2023-02-07T15:41:24;16.30;;;16.20;;
24787;SDS011;12883;52.662;5.196;2023-02-07T15:44:01;15.30;;;15.20;;
24787;SDS011;12883;52.662;5.196;2023-02-07T15:46:44;16.83;;;16.73;;
24787;SDS011;12883;52.662;5.196;2023-02-07T15:49:21;15.70;;;15.60;;
24787;SDS011;12883;52.662;5.196;2023-02-07T15:51:59;15.33;;;15.23;;
24787;SDS011;12883;52.662;5.196;2023-02-07T15:54:38;15.00;;;14.90;;
24787;SDS011;12883;52.662;5.196;2023-02-07T15:57:11;16.17;;;16.07;;
24787;SDS011;12883;52.662;5.196;2023-02-07T15:59:47;15.50;;;15.40;;
24787;SDS011;12883;52.662;5.196;2023-02-07T16:02:51;15.23;;;15.13;;
24787;SDS011;12883;52.662;5.196;2023-02-07T16:05:11;16.27;;;16.17;;
24787;SDS011;12883;52.662;5.196;2023-02-07T16:07:58;15.27;;;15.17;;
24787;SDS011;12883;52.662;5.196;2023-02-07T16:15:35;16.13;;;16.03;;
24787;SDS011;12883;52.662;5.196;2023-02-07T16:18:03;14.00;;;13.90;;
24787;SDS011;12883;52.662;5.196;2023-02-07T16:20:30;14.10;;;14.00;;
24787;SDS011;12883;52.662;5.196;2023-02-07T16:23:00;13.20;;;13.20;;
24787;SDS011;12883;52.662;5.196;2023-02-07T16:25:30;14.03;;;13.93;;
24787;SDS011;12883;52.662;5.196;2023-02-07T16:27:57;12.57;;;12.57;;
24787;SDS011;12883;52.662;5.196;2023-02-07T16:30:26;13.77;;;13.67;;
24787;SDS011;12883;52.662;5.196;2023-02-07T16:32:53;13.33;;;13.27;;
24787;SDS011;12883;52.662;5.196;2023-02-07T16:35:25;12.80;;;12.80;;
24787;SDS011;12883;52.662;5.196;2023-02-07T16:37:51;12.97;;;12.97;;
24787;SDS011;12883;52.662;5.196;2023-02-07T16:40:18;14.30;;;14.20;;
24787;SDS011;12883;52.662;5.196;2023-02-07T16:42:46;12.90;;;12.90;;
24787;SDS011;12883;52.662;5.196;2023-02-07T16:45:25;14.77;;;14.67;;
24787;SDS011;12883;52.662;5.196;2023-02-07T16:47:52;13.97;;;13.87;;
24787;SDS011;12883;52.662;5.196;2023-02-07T16:52:46;14.23;;;14.20;;
24787;SDS011;12883;52.662;5.196;2023-02-07T16:55:13;15.47;;;15.37;;
24787;SDS011;12883;52.662;5.196;2023-02-07T16:57:39;15.57;;;15.47;;
24787;SDS011;12883;52.662;5.196;2023-02-07T17:00:07;15.93;;;15.83;;
24787;SDS011;12883;52.662;5.196;2023-02-07T17:02:37;14.83;;;14.73;;
24787;SDS011;12883;52.662;5.196;2023-02-07T17:05:02;15.20;;;15.10;;
24787;SDS011;12883;52.662;5.196;2023-02-07T17:07:28;12.73;;;12.67;;
24787;SDS011;12883;52.662;5.196;2023-02-07T17:09:54;14.40;;;14.30;;
24787;SDS011;12883;52.662;5.196;2023-02-07T17:12:19;14.10;;;14.00;;
24787;SDS011;12883;52.662;5.196;2023-02-07T17:14:45;13.23;;;13.23;;
24787;SDS011;12883;52.662;5.196;2023-02-07T17:17:13;13.80;;;13.70;;
24787;SDS011;12883;52.662;5.196;2023-02-07T17:19:38;12.90;;;12.90;;